• Join FlightAware (Why Join?)
  • Login
  • US Flag 
01:32PM EDT


 

Airport Tracker/Info


-or-


 

Live Flight TrackerFlight Track Log ✈ N2441K ✈ 17-Jun-2013 ✈ KRST - KMKC

Flight Track Log - Related Links

Times and Time Zones

All times are in EDT time to prevent confusion due to time zone crossing. See the N2441K flight status page for this flight to view local times or setup timezone preferences in your user account.

Time Position Orientation Groundspeed Altitude Reporting Facility
EDT Latitude Longitude Course Direction KTS MPH feet Rate Location/Type
12:47PM 43.9214 -92.5700 202° Southwest 177 204 5,200  Level Minneapolis Center
12:48PM 43.8683 -92.5842 191° South 182 209 7,800 2,280 Climbing Minneapolis Center
12:49PM 43.8117 -92.6031 194° South 195 224 10,000 1,920 Climbing Minneapolis Center
12:50PM 43.7664 -92.6219 197° South 199 229 11,800 2,100 Climbing Minneapolis Center
12:51PM 43.7058 -92.6586 204° Southwest 200 230 14,400 2,340 Climbing Minneapolis Center
12:52PM 43.5103 -92.7054 202° Southwest  Level FlightAware Approximate
12:52PM 43.6583 -92.6817 199° South 191 220 16,700  Level Minneapolis Center
12:53PM 43.6067 -92.7039 197° South 194 223 18,400 1,560 Climbing Minneapolis Center
12:54PM 43.5503 -92.7308 199° South 207 238 20,000 1,740 Climbing Minneapolis Center
12:55PM 43.4806 -92.7600 197° South 219 252 22,000 1,740 Climbing Minneapolis Center
12:56PM 43.4194 -92.7864 197° South 230 265 23,700 1,500 Climbing Minneapolis Center
12:58PM 43.3642 -92.8106 198° South 219 252 25,200 1,020 Climbing Minneapolis Center
12:59PM 43.3039 -92.8361 197° South 225 259 25,900 360 Climbing Minneapolis Center
01:00PM 43.2350 -92.8689 199° South 252 290 26,000 60 Climbing Minneapolis Center
01:01PM 43.1456 -92.9100 199° South 280 322 26,100  Climbing Minneapolis Center
01:02PM 43.0733 -92.9467 200° South 280 322 26,000 -60 Descending Minneapolis Center
01:03PM 42.9983 -92.9797 198° South 285 328 26,000  Level Minneapolis Center
01:04PM 42.9250 -93.0131 198° South 283 326 26,000  Level Minneapolis Center
01:05PM 42.8378 -93.0531 199° South 280 322 26,000  Level Minneapolis Center
01:06PM 42.7631 -93.0836 197° South 282 325 26,000  Level Minneapolis Center
01:07PM 42.6881 -93.1150 197° South 284 327 26,000  Level Minneapolis Center
01:08PM 42.6142 -93.1456 197° South 281 323 26,100  Climbing Minneapolis Center
01:09PM 42.5392 -93.1783 198° South 284 327 26,000  Descending Minneapolis Center
01:10PM 42.4494 -93.2169 198° South 284 327 26,100  Climbing Minneapolis Center
01:11PM 42.3742 -93.2503 198° South 287 330 26,100 -60 Level Minneapolis Center
01:12PM 42.2989 -93.2828 198° South 287 330 26,000 -60 Descending Minneapolis Center
01:13PM 42.2253 -93.3169 199° South 284 327 26,000  Level Minneapolis Center
01:14PM 42.1514 -93.3481 197° South 282 325 26,000  Level Minneapolis Center
01:15PM 42.0617 -93.3867 198° South 284 327 26,000  Level Minneapolis Center
01:16PM 41.9867 -93.4181 197° South 285 328 26,000  Level Minneapolis Center
01:17PM 41.9044 -93.4539 198° South 288 331 26,000  Level Minneapolis Center
01:18PM 41.8294 -93.4883 199° South 288 331 26,100  Climbing Minneapolis Center
01:19PM 41.7533 -93.5203 197° South 288 331 26,000 -60 Descending Minneapolis Center
01:20PM 41.6775 -93.5531 198° South 289 333 26,000  Level Minneapolis Center
01:21PM 41.6028 -93.5869 199° South 288 331 26,000  Level Minneapolis Center
01:22PM 41.5111 -93.6261 198° South 289 333 26,000 -60 Level Minneapolis Center
01:23PM 41.4336 -93.6575 197° South 291 335 25,900 -360 Descending Minneapolis Center
01:25PM 41.2878 -93.7100 195° South 306 352 25,000 -300 Descending Kansas City Center
01:26PM 41.1789 -93.7506 196° South 299 344 25,000  Level Minneapolis Center
01:28PM 41.1025 -93.7778 195° South 290 334 25,000  Level Minneapolis Center
01:29PM 41.0264 -93.8064 196° South 289 333 25,000  Level Minneapolis Center
01:30PM 40.9497 -93.8342 195° South 288 331 25,000 -420 Level Minneapolis Center
01:31PM 40.8711 -93.8628 195° South 290 334 24,200 -1,020 Descending Minneapolis Center
01:32PM 40.7717 -93.9025 197° South 303 349 22,900 -1,140 Descending Minneapolis Center
01:33PM 40.6875 -93.9375 198° South 311 358 21,900 -1,020 Descending Minneapolis Center
01:34PM 40.6050 -93.9728 198° South 314 361 20,900 -960 Descending Minneapolis Center
01:35PM 40.5197 -93.9664 177° South 311 358 20,000 -480 Descending Minneapolis Center
01:36PM 40.4372 -93.9575 175° South 306 352 20,000 -120 Level Minneapolis Center
01:37PM 40.3569 -93.9472 174° South 294 338 19,800 -660 Descending Kansas City Center
01:38PM 40.2747 -93.9383 175° South 295 339 18,800 -840 Descending Kansas City Center
01:39PM 40.1881 -93.9269 174° South 309 356 18,200 -840 Descending Kansas City Center
01:40PM 40.1033 -93.9186 176° South 310 357 17,100 -1,200 Descending Kansas City Center
01:41PM 40.0206 -93.9075 174° South 303 349 15,800 -1,380 Descending Kansas City Center
01:42PM 39.9228 -93.8969 175° South 298 343 14,300 -1,200 Descending Kansas City Center
01:43PM 39.8414 -93.8886 176° South 296 341 13,300 -1,140 Descending Kansas City Center
01:44PM 39.7647 -93.8825 176° South 285 328 12,000 -1,140 Descending Kansas City Center
01:45PM 39.6781 -93.8744 176° South 279 321 11,000 -540 Descending Kansas City Center
01:46PM 39.6142 -93.8992 197° South 260 299 11,000  Level Kansas City Center
01:47PM 39.5431 -93.9450 206° Southwest 254 292 11,000 -360 Level Kansas City Center
01:48PM 39.4828 -93.9833 206° Southwest 252 290 10,300 -900 Descending Kansas City Center
01:49PM 39.4161 -94.0397 213° Southwest 258 297 9,200 -960 Descending Kansas City Center
01:50PM 39.3608 -94.0933 217° Southwest 259 298 8,300 -1,140 Descending Kansas City Center
01:51PM 39.3069 -94.1483 218° Southwest 258 297 6,900 -1,380 Descending Kansas City Center
01:52PM 39.2447 -94.2111 218° Southwest 254 292 5,500 -1,200 Descending Kansas City Center
01:53PM 39.1914 -94.2631 217° Southwest 251 289 4,400 -840 Descending Kansas City Center
01:54PM 39.1292 -94.3256 218° Southwest 252 290 3,800 -660 Descending Kansas City Center
01:55PM 39.0917 -94.3889 233° Southwest 235 270 3,100 -540 Descending Kansas City Center
01:56PM 39.0647 -94.4608 244° Southwest 197 227 2,700 -300 Descending Kansas City Center
01:57PM 39.0539 -94.5203 257° West 180 207 2,600 -180 Descending Kansas City Center
01:58PM 39.0583 -94.5847 275° West 162 186 2,400 -420 Descending Kansas City Center
01:59PM 39.0853 -94.6056 329° Northwest 126 145 1,800 -600 Descending Kansas City Center
02:00PM 39.1181 -94.5956 13° North 121 139 1,200 -600 Descending Kansas City Center
02:02PM 39.1167 -94.5833 180° South  Level FlightAware Approximate